Latest Weather Observations for Gelantipy

IDV60801

Issued at 3:22 pm EST Thursday 18 July 2024 (issued every 10 minutes, with the page automatically refreshed every 10 minutes)

About weather observations | Map of weather stations | Latest weather observations for VIC | Other Formats
Station Details ID: 084142 Name: GELANTIPY Lat: -37.22 Lon: 148.26 Height: 755.0 m
Data from the previous 72 hours. | See also: Recent months at Gelantipy
Date/Time
EST
Temp
°C
App
Temp
°C
Dew
Point
°C
Rel
Hum
%
Delta-T
°C
Wind Press
QNH
hPa
Press
MSL
hPa
Rain since
9am
mm
Dir  Spd
km/h
Gust
km/h
Spd
kts
Gust
kts
18/03:00pm 5.1 0.6 2.3 82 1.2 SW 15 26 8 14 1011.2 1012.2 0.0
18/02:30pm 5.4 0.2 2.4 81 1.3 SW 19 39 10 21 1011.1 1012.1 0.0
18/02:00pm 6.1 0.0 2.6 78 1.5 WSW 24 32 13 17 1011.2 1012.2 0.0
18/01:30pm 5.1 0.1 1.2 76 1.6 SW 17 28 9 15 1011.5 1012.4 0.0
18/01:00pm 4.8 -2.8 0.6 74 1.7 WSW 30 41 16 22 1011.6 1012.5 0.0
18/12:30pm 5.0 -0.9 1.7 79 1.4 SW 22 35 12 19 1011.9 1012.8 0.0
18/12:00pm 4.5 -3.3 1.5 81 1.2 WSW 32 48 17 26 1012.3 1013.3 0.0
18/11:54am 4.5 -2.7 1.0 78 1.4 WSW 28 48 15 26 1012.4 1013.4 0.0
18/11:30am 4.5 -1.2 2.7 88 0.8 WSW 22 41 12 22 1012.5 1013.5 0.0
18/11:00am 4.0 -2.2 2.2 88 0.8 SW 24 39 13 21 1012.6 1013.6 0.0
18/10:30am 3.7 -2.0 3.1 96 0.3 SW 22 35 12 19 1012.9 1013.8 0.0
18/10:00am 3.6 -3.3 2.7 94 0.4 SW 28 43 15 23 1012.8 1013.7 0.0
18/09:30am 4.3 -1.4 2.8 90 0.6 SW 22 35 12 19 1012.5 1013.5 0.0
18/09:00am 4.6 -0.5 2.8 88 0.8 SW 19 32 10 17 1012.2 1013.1 7.0
18/08:30am 4.0 0.5 3.4 96 0.3 SW 11 15 6 8 1011.8 1012.7 7.0
18/08:00am 3.9 0.0 3.3 96 0.3 WSW 13 19 7 10 1011.7 1012.6 7.0
18/07:30am 3.7 -0.3 3.1 96 0.3 WSW 13 17 7 9 1011.4 1012.3 7.0
18/07:00am 4.1 0.3 3.7 97 0.2 WSW 13 20 7 11 1011.1 1012.1 7.0
18/06:30am 4.2 1.2 4.1 99 0.0 SW 9 13 5 7 1011.0 1011.9 7.0
18/06:00am 4.3 1.7 4.2 99 0.0 SW 7 15 4 8 1010.8 1011.7 7.0
18/05:30am 4.2 2.1 4.1 99 0.0 SW 4 9 2 5 1010.6 1011.5 7.0
18/05:00am 4.3 2.6 4.0 98 0.1 SW 2 7 1 4 1010.3 1011.2 7.0
18/04:30am 4.3 2.6 4.0 98 0.1 SW 2 7 1 4 1010.2 1011.1 7.0
18/04:00am 4.2 2.8 3.6 96 0.3 CALM 0 0 0 0 1010.2 1011.1 7.0
18/03:30am 4.3 2.9 3.6 95 0.3 CALM 0 0 0 0 1010.3 1011.2 7.0
18/03:00am 4.4 1.9 3.8 96 0.3 WNW 6 7 3 4 1010.3 1011.2 7.0
18/02:30am 4.4 1.7 3.7 95 0.3 NW 7 9 4 5 1010.2 1011.1 7.0
18/02:00am 4.1 2.4 3.8 98 0.1 N 2 7 1 4 1010.2 1011.1 7.0
18/01:30am 3.9 1.2 3.6 98 0.1 NW 7 9 4 5 1010.3 1011.2 7.0
18/01:00am 4.4 2.0 4.3 99 0.0 NNW 6 7 3 4 1010.4 1011.3 7.0
18/12:30am 4.4 2.0 4.4 100 0.0 NNW 6 9 3 5 1010.7 1011.6 7.0
18/12:00am 4.3 1.7 4.3 100 0.0 N 7 7 4 4 1010.8 1011.7 7.0
 
Date/Time
EST
Temp
°C
App
Temp
°C
Dew
Point
°C
Rel
Hum
%
Delta-T
°C
Wind Press
QNH
hPa
Press
MSL
hPa
Rain since
9am
mm
Dir  Spd
km/h
Gust
km/h
Spd
kts
Gust
kts
17/11:30pm 4.4 1.5 4.4 100 0.0 NNW 9 9 5 5 1011.0 1011.9 7.0
17/11:00pm 4.5 3.3 4.5 100 0.0 CALM 0 0 0 0 1011.0 1011.9 7.0
17/10:30pm 4.5 3.3 4.5 100 0.0 CALM 0 0 0 0 1011.2 1012.2 7.0
17/10:00pm 4.5 2.0 4.5 100 0.0 W 7 9 4 5 1011.2 1012.2 7.0
17/09:30pm 4.5 1.2 4.5 100 0.0 W 11 13 6 7 1011.4 1012.3 7.0
17/09:00pm 4.5 2.0 4.5 100 0.0 W 7 9 4 5 1011.4 1012.3 7.0
17/08:30pm 4.4 1.8 4.4 100 0.0 SSW 7 13 4 7 1011.4 1012.3 7.0
17/08:00pm 4.5 1.2 4.5 100 0.0 S 11 22 6 12 1011.2 1012.2 6.8
17/07:30pm 5.2 2.4 5.2 100 0.0 S 9 19 5 10 1011.0 1011.9 6.6
17/07:00pm 5.5 3.2 5.5 100 0.0 SSW 7 13 4 7 1010.7 1011.6 6.2
17/06:30pm 5.5 2.4 5.5 100 0.0 SW 11 15 6 8 1010.5 1011.4 5.8
17/06:00pm 5.5 2.4 5.5 100 0.0 SSW 11 22 6 12 1010.1 1011.0 5.4
17/05:30pm 5.4 2.2 5.3 99 0.0 SW 11 15 6 8 1009.7 1010.6 5.2
17/05:00pm 5.5 1.5 5.1 97 0.2 SW 15 22 8 12 1009.5 1010.4 4.8
17/04:30pm 5.8 1.1 5.2 96 0.3 WSW 19 26 10 14 1009.4 1010.3 4.6
17/04:00pm 6.0 1.7 5.3 95 0.3 SW 17 22 9 12 1009.2 1010.1 4.6
17/03:30pm 6.6 2.3 5.2 91 0.6 SW 17 24 9 13 1008.9 1009.8 4.4
17/03:00pm 6.7 2.4 5.2 90 0.7 SW 17 24 9 13 1008.7 1009.5 4.4
17/02:30pm 6.6 1.7 5.1 90 0.7 WSW 20 24 11 13 1008.5 1009.3 4.4
17/02:00pm 6.5 1.8 5.3 92 0.6 WSW 19 24 10 13 1008.5 1009.3 4.4
17/01:30pm 6.4 1.8 5.8 96 0.3 SW 19 26 10 14 1008.3 1009.2 4.4
17/01:00pm 5.9 1.1 5.6 98 0.1 SW 20 30 11 16 1008.5 1009.3 4.4
17/12:30pm 5.8 1.2 5.7 99 0.0 SW 19 30 10 16 1008.6 1009.4 4.2
17/12:00pm 5.8 0.7 5.8 100 0.0 WSW 22 35 12 19 1008.8 1009.6 3.6
17/11:30am 5.6 0.8 5.6 100 0.0 SW 20 30 11 16 1009.0 1009.9 3.2
17/11:00am 5.6 0.4 5.6 100 0.0 SW 22 32 12 17 1009.3 1010.2 2.6
17/10:30am 5.5 0.7 5.5 100 0.0 SW 20 30 11 16 1009.3 1010.2 1.8
17/10:00am 5.5 1.3 5.5 100 0.0 SW 17 24 9 13 1009.1 1010.0 1.2
17/09:30am 5.4 1.1 5.4 100 0.0 SW 17 24 9 13 1008.9 1009.8 0.4
17/09:00am 5.3 -0.7 5.3 100 0.0 SW 26 37 14 20 1008.6 1009.4 25.0
17/08:30am 5.3 0.1 5.3 100 0.0 SW 22 35 12 19 1008.2 1009.1 25.0
17/08:00am 5.4 -1.0 5.4 100 0.0 SW 28 41 15 22 1007.7 1008.5 24.2
17/07:30am 5.4 -1.0 5.4 100 0.0 SW 28 41 15 22 1007.4 1008.2 23.6
17/07:00am 5.3 0.1 5.3 100 0.0 SW 22 33 12 18 1007.3 1008.1 22.8
17/06:30am 5.2 -0.8 5.2 100 0.0 SW 26 41 14 22 1006.9 1007.8 22.4
17/06:16am 5.2 -1.2 5.2 100 0.0 SW 28 50 15 27 1006.7 1007.6 22.4
17/06:00am 5.2 -0.4 5.2 100 0.0 SW 24 41 13 22 1006.5 1007.3 22.2
17/05:30am 5.1 -0.6 5.1 100 0.0 SW 24 39 13 21 1006.3 1007.1 22.2
17/05:00am 5.2 -1.2 5.2 100 0.0 SW 28 44 15 24 1006.1 1006.9 22.2
17/04:30am 5.2 -0.4 5.2 100 0.0 SW 24 35 13 19 1006.0 1006.8 22.0
17/04:00am 5.2 -0.4 5.2 100 0.0 SW 24 43 13 23 1006.0 1006.8 22.0
17/03:30am 5.3 -0.7 5.3 100 0.0 SW 26 37 14 20 1005.9 1006.7 21.6
17/03:18am 5.3 -1.1 5.3 100 0.0 SW 28 48 15 26 1005.9 1006.7 21.6
17/03:00am 5.3 0.1 5.3 100 0.0 SW 22 39 12 21 1005.9 1006.7 21.4
17/02:30am 5.4 0.2 5.4 100 0.0 SW 22 35 12 19 1006.0 1006.8 21.4
17/02:00am 5.4 0.5 5.3 99 0.0 SW 20 33 11 18 1005.9 1006.7 20.8
17/01:30am 5.3 0.4 5.2 99 0.0 SW 20 37 11 20 1005.9 1006.7 20.4
17/01:00am 5.4 0.1 5.0 97 0.2 SW 22 35 12 19 1005.9 1006.7 19.8
17/12:30am 5.3 0.4 5.0 98 0.1 SSW 20 37 11 20 1006.0 1006.8 19.8
17/12:00am 5.4 0.5 5.0 97 0.2 SSW 20 43 11 23 1006.1 1006.9 19.6
 
Date/Time
EST
Temp
°C
App
Temp
°C
Dew
Point
°C
Rel
Hum
%
Delta-T
°C
Wind Press
QNH
hPa
Press
MSL
hPa
Rain since
9am
mm
Dir  Spd
km/h
Gust
km/h
Spd
kts
Gust
kts
16/11:30pm 5.7 1.1 5.4 98 0.1 SSW 19 32 10 17 1006.2 1007.0 19.6
16/11:00pm 5.8 0.2 5.5 98 0.1 SSW 24 39 13 21 1006.3 1007.1 19.6
16/10:30pm 6.0 -0.3 5.7 98 0.1 SSW 28 48 15 26 1006.3 1007.1 19.4
16/10:16pm 6.2 -0.1 5.9 98 0.1 SSW 28 50 15 27 1006.1 1006.9 19.4
16/10:00pm 6.2 0.4 6.1 99 0.0 SSW 26 41 14 22 1006.0 1006.8 19.4
16/09:30pm 6.1 1.4 6.0 99 0.0 SW 20 37 11 20 1005.9 1006.7 19.2
16/09:00pm 5.9 1.3 5.8 99 0.0 SSW 19 33 10 18 1005.5 1006.4 18.8
16/08:30pm 6.2 1.1 6.1 99 0.0 SSW 22 35 12 19 1005.4 1006.2 17.4
16/08:00pm 6.1 1.6 6.0 99 0.0 SW 19 24 10 13 1005.2 1006.0 16.8
16/07:30pm 6.0 0.5 5.7 98 0.1 SW 24 35 13 19 1005.1 1005.9 15.0
16/07:00pm 6.1 0.9 5.7 97 0.2 SW 22 35 12 19 1004.8 1005.6 14.0
16/06:30pm 6.5 1.1 6.2 98 0.1 SW 24 37 13 20 1004.5 1005.3 13.2
16/06:00pm 6.3 2.2 6.0 98 0.1 SSW 17 28 9 15 1004.4 1005.2 13.2
16/05:30pm 6.5 1.8 6.2 98 0.1 SW 20 39 11 21 1004.0 1004.8 12.8
16/05:00pm 6.8 2.4 6.5 98 0.1 SSW 19 35 10 19 1003.6 1004.4 12.2
16/04:30pm 7.0 2.6 6.7 98 0.1 SW 19 32 10 17 1003.2 1003.9 11.4
16/04:00pm 7.2 2.7 7.1 99 0.0 SSW 20 33 11 18 1002.7 1003.5 11.4
16/03:30pm 7.5 2.3 7.4 99 0.0 SSW 24 37 13 20 1002.2 1003.0 11.2
16/03:00pm 7.8 2.3 7.7 99 0.0 SSW 26 43 14 23 1001.7 1002.4 11.2
16/02:54pm 7.8 1.9 7.7 99 0.0 SSW 28 48 15 26 1001.6 1002.3 11.0
16/02:30pm 8.0 3.9 7.9 99 0.0 SSW 19 35 10 19 1001.2 1002.0 10.2
16/02:00pm 7.8 4.4 7.5 98 0.1 SSW 15 28 8 15 1001.0 1001.8 7.8
16/01:30pm 7.6 3.2 7.5 99 0.0 SW 20 39 11 21 1000.7 1001.4 6.0
16/01:00pm 7.5 3.1 7.2 98 0.1 SW 20 30 11 16 1000.8 1001.5 4.6
16/12:30pm 7.4 3.9 7.1 98 0.1 SW 15 26 8 14 1000.9 1001.6 3.0
16/12:00pm 7.5 3.6 7.2 98 0.1 SW 17 26 9 14 1001.1 1001.9 1.8
16/11:30am 7.4 3.5 7.1 98 0.1 SW 17 26 9 14 1001.6 1002.3 1.4
16/11:00am 6.7 3.4 6.6 99 0.0 SW 13 20 7 11 1001.8 1002.5 1.2
16/10:30am 6.4 2.3 6.4 100 0.0 SSW 17 30 9 16 1002.0 1002.7 1.0
16/10:00am 6.4 3.1 6.4 100 0.0 SW 13 24 7 13 1001.6 1002.3 0.2
16/09:30am 6.1 2.4 6.1 100 0.0 SW 15 20 8 11 1001.3 1002.1 0.0
16/09:00am 6.0 2.6 6.0 100 0.0 SW 13 19 7 10 1000.9 1001.6 6.4
16/08:30am 5.8 3.1 5.8 100 0.0 SSW 9 17 5 9 1000.5 1001.2 6.4
16/08:00am 5.6 2.1 5.6 100 0.0 SW 13 22 7 12 999.8 1000.5 6.4
16/07:30am 5.3 1.8 5.3 100 0.0 SW 13 22 7 12 999.1 999.8 6.4
16/07:00am 5.3 1.7 5.2 99 0.0 SW 13 19 7 10 998.2 998.9 6.4
16/06:30am 5.0 1.0 4.7 98 0.1 SW 15 22 8 12 997.3 997.9 6.4
16/06:00am 5.0 0.6 4.6 97 0.2 WSW 17 22 9 12 996.6 997.3 6.2
16/05:30am 5.0 -0.1 4.3 95 0.3 WSW 20 30 11 16 996.0 996.6 6.2
16/05:00am 4.9 0.4 4.3 96 0.3 W 17 22 9 12 995.5 996.2 6.0
16/04:30am 4.7 0.2 4.1 96 0.3 W 17 24 9 13 995.2 995.8 5.6
16/04:00am 4.7 -0.5 3.7 93 0.4 W 20 30 11 16 995.0 995.6 5.4
16/03:30am 4.5 -0.7 3.6 94 0.4 W 20 30 11 16 994.8 995.4 5.2
16/03:00am 4.5 -1.1 3.5 93 0.4 W 22 35 12 19 994.5 995.1 4.2
16/02:30am 4.5 -1.1 3.2 91 0.6 W 22 32 12 17 994.2 994.9 3.4
16/02:00am 5.0 -0.8 2.5 84 1.1 W 22 32 12 17 993.9 994.5 2.6
16/01:30am 5.2 0.0 2.4 82 1.2 WNW 19 37 10 20 993.8 994.4 2.6
16/01:00am 5.0 0.9 2.4 83 1.1 NW 13 22 7 12 993.8 994.4 2.2
16/12:30am 5.3 0.4 2.1 80 1.4 WNW 17 28 9 15 993.7 994.3 1.6
16/12:00am 5.6 1.8 1.7 76 1.7 WNW 11 22 6 12 993.6 994.2 1.0
 
Date/Time
EST
Temp
°C
App
Temp
°C
Dew
Point
°C
Rel
Hum
%
Delta-T
°C
Wind Press
QNH
hPa
Press
MSL
hPa
Rain since
9am
mm
Dir  Spd
km/h
Gust
km/h
Spd
kts
Gust
kts
15/11:30pm 5.3 -0.2 2.0 79 1.4 WNW 20 39 11 21 993.7 994.3 1.0
15/11:00pm 5.3 0.0 2.0 79 1.4 NW 19 33 10 18 994.2 994.9 0.8
15/10:30pm 5.1 -0.3 2.3 82 1.2 W 20 35 11 19 994.6 995.2 0.8
15/10:14pm 5.0 -2.0 2.2 82 1.2 NW 28 48 15 26 994.7 995.3 0.6
15/10:00pm 5.0 -1.6 2.0 81 1.3 NW 26 43 14 23 994.7 995.3 0.6
15/09:30pm 4.6 -1.2 2.1 84 1.1 NW 22 33 12 18 995.3 995.9 0.6
15/09:00pm 5.1 -0.4 1.8 79 1.4 WNW 20 35 11 19 995.8 996.4 0.2
15/08:30pm 5.4 -1.7 1.1 74 1.8 WNW 28 43 15 23 996.0 996.6 0.0
15/08:12pm 5.6 -1.6 0.8 71 2.0 WNW 28 52 15 28 996.3 996.9 0.0
15/08:00pm 5.7 -0.7 0.7 70 2.1 WNW 24 39 13 21 996.2 996.8 0.0
15/07:32pm 5.8 -1.8 0.4 68 2.2 WNW 30 48 16 26 996.5 997.2 0.0
15/07:30pm 6.0 -2.0 0.3 67 2.3 WNW 32 48 17 26 996.4 997.0 0.0
15/07:00pm 5.9 -1.7 0.3 67 2.3 WNW 30 52 16 28 996.5 997.2 0.0
15/06:56pm 5.8 -1.8 0.4 68 2.2 WNW 30 52 16 28 996.3 996.9 0.0
15/06:30pm 5.6 -2.4 0.6 70 2.0 WNW 32 48 17 26 996.7 997.4 0.0
15/06:00pm 5.3 -2.7 0.7 72 1.9 WNW 32 52 17 28 996.9 997.6 0.0
15/05:30pm 5.2 -3.7 1.0 74 1.7 WNW 37 63 20 34 996.8 997.5 0.0
15/05:10pm 5.0 -2.2 0.9 75 1.7 WNW 28 50 15 27 997.0 997.7 0.0
15/05:00pm 5.1 -0.5 0.9 74 1.7 NW 20 44 11 24 997.3 997.9 0.0
15/04:30pm 4.7 -2.4 1.2 78 1.4 NW 28 46 15 25 997.3 997.9 0.0
15/04:12pm 4.5 -2.7 1.0 78 1.4 WNW 28 50 15 27 997.6 998.2 0.0
15/04:00pm 4.7 -1.7 1.0 77 1.5 WNW 24 41 13 22 997.7 998.4 0.0
15/03:30pm 4.8 -2.0 0.9 76 1.6 WNW 26 39 14 21 997.7 998.4 0.0

Other formats

Comma delimited format used in spreadsheet applications
http://www.bom.gov.au/fwo/IDV60801/IDV60801.94913.axf

JavaScript Object Notation format (JSON) in row-major order
http://www.bom.gov.au/fwo/IDV60801/IDV60801.94913.json

Data quality

Most of these data are generated automatically and are frequently updated. Quality checks on data are not normally performed. It is possible for incorrect values to appear. Refer to information at About Latest Weather Observations and please check the disclaimer before using these data.